To NAV CANADA Home Page Login to a new session Search on AWWS site Feedback and Comments Disclaimer Vers la page française équivalente Tips FAQ What's new on the site To the Forecasts and Observations / NOTAM section To "File a Flight Plan" website Publications and other links Update of the User's profile FIC Telephone Numbers My Weather Data Folder Route Weather Data Regional Weather Data Local Weather Data To the Forecasts and Observations / NOTAM section
Request Generated 10/18/2017 at 03:49:53 UTC . Weather information available at that time is displayed.

METAR/TAF

FORT ST. JOHN/BC    

METAR CYXJ 180300Z 18006KT 15SM FEW090 M01/M01 A2962 RMK AC2 SLP061=
METAR CYXJ 180200Z 14003KT 120V200 15SM FEW010 FEW050 FEW090 M01/M01
A2960 RMK SF1CU1AC1 SF TR SLP056=
METAR CYXJ 180100Z 06004KT 15SM FEW007 SCT050CB BKN070 00/M01 A2959
RMK SF1CB2AC2 SLP049=

TAF CYXJ 180038Z 1801/1813 23008KT P6SM FEW020 BKN070 TEMPO 1801/1803
P6SM -SHRA SCT020 BKN050
FM180300 22008KT P6SM SCT070 TEMPO 1803/1806 BKN070
FM180600 22005KT P6SM FEW200 PROB30 1807/1813 2SM BR
RMK NXT FCST BY 180700Z=
Your time UTC time
Weather data provided by Environment Canada and NAV CANADA